Skip Navigation Links Skip Navigation Links

Current Weather

Columbia Gorge Regional/The Dalles Muni, The Dalles, Ore.

For information only: do not use for flight planning or navigation.
Latest weather
Observation time Tuesday, September 28, 2021 2:53 AM PDT
Local time Tuesday, September 28, 2021 3:35 AM PDT
Flight conditions Visual Meteorological Conditions
Winds
Wind direction South (180°)
Wind speed 3 mph
Visibility 10 mi.
Sky condition
Ceiling 6,500 ft. broken clouds
Cloud layer broken clouds 6,500 ft.
Temperature 51°F
Dewpoint 43°F
Altimeter 29.96 in.Hg
Derived measurements
Relative humidity 74%
Density altitude -186 ft.
Sea-level pressure 29.96 in.Hg
Remarks
Fully automated report.
Automated weather observing station with precipitation discriminator.
METAR KDLS 280953Z AUTO 18003KT 10SM BKN065 11/06 A2996 RMK AO2 SLP144 T01060061

Settings

Location code

InnerDrive.Weather 4.0.6770.0 Release CLR 4.0.30319.42000
Copyright ©2018 Inner Drive Technology. All rights reserved. Portions Copyright ©1986-2018 David Braverman.

Find weather

Site navigation


Skip Navigation Links

Place info

Page info

PayPal - The safer, easier way to pay online!

Return home.

Copyright ©2021 Inner Drive Technology. Purveyors of fine, hand-crafted computer software. Page printed 2021-09-28T10:35:09 UTC.